sensor_id;sensor_type;location;lat;lon;timestamp;temperature;humidity
26721;HTU21D;15950;51.112;6.966;2023-03-16T00:00:28;3.44;71.77
26721;HTU21D;15950;51.112;6.966;2023-03-16T00:03:27;3.33;72.02
26721;HTU21D;15950;51.112;6.966;2023-03-16T00:06:27;3.43;72.09
26721;HTU21D;15950;51.112;6.966;2023-03-16T00:09:27;3.40;72.18
26721;HTU21D;15950;51.112;6.966;2023-03-16T00:12:27;3.38;72.29
26721;HTU21D;15950;51.112;6.966;2023-03-16T00:15:27;3.38;72.41
26721;HTU21D;15950;51.112;6.966;2023-03-16T00:18:28;3.36;72.51
26721;HTU21D;15950;51.112;6.966;2023-03-16T00:21:28;3.38;72.49
26721;HTU21D;15950;51.112;6.966;2023-03-16T00:24:27;3.24;72.80
26721;HTU21D;15950;51.112;6.966;2023-03-16T00:27:27;3.25;72.90
26721;HTU21D;15950;51.112;6.966;2023-03-16T00:30:28;3.29;72.80
26721;HTU21D;15950;51.112;6.966;2023-03-16T00:33:27;3.26;72.86
26721;HTU21D;15950;51.112;6.966;2023-03-16T00:36:27;3.23;72.92
26721;HTU21D;15950;51.112;6.966;2023-03-16T00:39:27;3.33;72.90
26721;HTU21D;15950;51.112;6.966;2023-03-16T00:42:29;3.19;72.86
26721;HTU21D;15950;51.112;6.966;2023-03-16T00:45:27;3.25;73.06
26721;HTU21D;15950;51.112;6.966;2023-03-16T00:48:27;3.30;72.95
26721;HTU21D;15950;51.112;6.966;2023-03-16T00:51:27;3.23;73.07
26721;HTU21D;15950;51.112;6.966;2023-03-16T00:54:28;3.29;72.96
26721;HTU21D;15950;51.112;6.966;2023-03-16T00:57:27;3.32;72.88
26721;HTU21D;15950;51.112;6.966;2023-03-16T01:00:27;3.31;72.70
26721;HTU21D;15950;51.112;6.966;2023-03-16T01:03:27;3.30;72.76
26721;HTU21D;15950;51.112;6.966;2023-03-16T01:06:27;3.39;72.53
26721;HTU21D;15950;51.112;6.966;2023-03-16T01:09:27;3.35;72.38
26721;HTU21D;15950;51.112;6.966;2023-03-16T01:12:27;3.52;72.02
26721;HTU21D;15950;51.112;6.966;2023-03-16T01:15:30;3.41;72.01
26721;HTU21D;15950;51.112;6.966;2023-03-16T01:18:27;3.35;72.03
26721;HTU21D;15950;51.112;6.966;2023-03-16T01:21:27;3.38;72.19
26721;HTU21D;15950;51.112;6.966;2023-03-16T01:24:28;3.29;72.24
26721;HTU21D;15950;51.112;6.966;2023-03-16T01:27:27;3.34;72.10
26721;HTU21D;15950;51.112;6.966;2023-03-16T01:30:27;3.34;72.09
26721;HTU21D;15950;51.112;6.966;2023-03-16T01:33:28;3.43;71.61
26721;HTU21D;15950;51.112;6.966;2023-03-16T01:36:27;3.41;71.56
26721;HTU21D;15950;51.112;6.966;2023-03-16T01:39:27;3.46;71.48
26721;HTU21D;15950;51.112;6.966;2023-03-16T01:42:27;3.36;71.48
26721;HTU21D;15950;51.112;6.966;2023-03-16T01:48:28;3.53;71.03
26721;HTU21D;15950;51.112;6.966;2023-03-16T01:51:34;3.42;71.12
26721;HTU21D;15950;51.112;6.966;2023-03-16T01:54:34;3.46;71.15
26721;HTU21D;15950;51.112;6.966;2023-03-16T01:57:31;3.49;70.85
26721;HTU21D;15950;51.112;6.966;2023-03-16T02:00:27;3.55;70.54
26721;HTU21D;15950;51.112;6.966;2023-03-16T02:03:27;3.52;70.58
26721;HTU21D;15950;51.112;6.966;2023-03-16T02:06:28;3.58;70.63
26721;HTU21D;15950;51.112;6.966;2023-03-16T02:09:28;3.55;70.48
26721;HTU21D;15950;51.112;6.966;2023-03-16T02:12:28;3.61;70.40
26721;HTU21D;15950;51.112;6.966;2023-03-16T02:15:27;3.71;70.30
26721;HTU21D;15950;51.112;6.966;2023-03-16T02:18:27;3.61;70.35
26721;HTU21D;15950;51.112;6.966;2023-03-16T02:21:30;3.70;70.13
26721;HTU21D;15950;51.112;6.966;2023-03-16T02:24:27;3.67;70.14
26721;HTU21D;15950;51.112;6.966;2023-03-16T02:30:27;3.69;70.07
26721;HTU21D;15950;51.112;6.966;2023-03-16T02:33:28;3.68;70.07
26721;HTU21D;15950;51.112;6.966;2023-03-16T02:36:29;3.69;70.07
26721;HTU21D;15950;51.112;6.966;2023-03-16T02:39:27;3.68;70.15
26721;HTU21D;15950;51.112;6.966;2023-03-16T02:42:28;3.68;69.93
26721;HTU21D;15950;51.112;6.966;2023-03-16T02:45:32;3.68;70.01
26721;HTU21D;15950;51.112;6.966;2023-03-16T02:48:32;3.61;70.05
26721;HTU21D;15950;51.112;6.966;2023-03-16T02:51:28;3.67;70.06
26721;HTU21D;15950;51.112;6.966;2023-03-16T02:54:27;3.64;69.94
26721;HTU21D;15950;51.112;6.966;2023-03-16T02:57:27;3.58;69.92
26721;HTU21D;15950;51.112;6.966;2023-03-16T03:00:27;3.57;70.14
26721;HTU21D;15950;51.112;6.966;2023-03-16T03:03:27;3.64;69.97
26721;HTU21D;15950;51.112;6.966;2023-03-16T03:06:28;3.66;69.97
26721;HTU21D;15950;51.112;6.966;2023-03-16T03:09:27;3.71;69.88
26721;HTU21D;15950;51.112;6.966;2023-03-16T03:12:27;3.58;70.03
26721;HTU21D;15950;51.112;6.966;2023-03-16T03:15:27;3.76;69.78
26721;HTU21D;15950;51.112;6.966;2023-03-16T03:18:27;3.80;69.56
26721;HTU21D;15950;51.112;6.966;2023-03-16T03:21:27;3.88;69.28
26721;HTU21D;15950;51.112;6.966;2023-03-16T03:24:27;3.96;68.86
26721;HTU21D;15950;51.112;6.966;2023-03-16T03:27:27;3.91;68.61
26721;HTU21D;15950;51.112;6.966;2023-03-16T03:30:27;3.96;68.42
26721;HTU21D;15950;51.112;6.966;2023-03-16T03:33:28;3.98;68.26
26721;HTU21D;15950;51.112;6.966;2023-03-16T03:36:27;3.98;68.46
26721;HTU21D;15950;51.112;6.966;2023-03-16T03:39:27;3.99;68.37
26721;HTU21D;15950;51.112;6.966;2023-03-16T03:42:27;3.95;68.41
26721;HTU21D;15950;51.112;6.966;2023-03-16T03:45:27;3.97;68.38
26721;HTU21D;15950;51.112;6.966;2023-03-16T03:48:28;3.89;68.30
26721;HTU21D;15950;51.112;6.966;2023-03-16T03:51:27;3.95;68.11
26721;HTU21D;15950;51.112;6.966;2023-03-16T03:54:27;3.90;68.64
26721;HTU21D;15950;51.112;6.966;2023-03-16T03:57:27;3.72;68.87
26721;HTU21D;15950;51.112;6.966;2023-03-16T04:00:27;3.83;68.84
26721;HTU21D;15950;51.112;6.966;2023-03-16T04:03:27;3.71;69.22
26721;HTU21D;15950;51.112;6.966;2023-03-16T04:06:27;3.75;69.25
26721;HTU21D;15950;51.112;6.966;2023-03-16T04:09:27;3.75;69.18
26721;HTU21D;15950;51.112;6.966;2023-03-16T04:12:27;3.80;69.22
26721;HTU21D;15950;51.112;6.966;2023-03-16T04:15:27;3.76;69.23
26721;HTU21D;15950;51.112;6.966;2023-03-16T04:18:28;3.72;69.45
26721;HTU21D;15950;51.112;6.966;2023-03-16T04:21:27;3.64;69.71
26721;HTU21D;15950;51.112;6.966;2023-03-16T04:24:27;3.66;69.71
26721;HTU21D;15950;51.112;6.966;2023-03-16T04:27:27;3.70;69.89
26721;HTU21D;15950;51.112;6.966;2023-03-16T04:30:27;3.66;69.91
26721;HTU21D;15950;51.112;6.966;2023-03-16T04:33:27;3.67;69.88
26721;HTU21D;15950;51.112;6.966;2023-03-16T04:36:27;3.73;69.88
26721;HTU21D;15950;51.112;6.966;2023-03-16T04:39:27;3.58;70.10
26721;HTU21D;15950;51.112;6.966;2023-03-16T04:42:27;3.69;70.06
26721;HTU21D;15950;51.112;6.966;2023-03-16T04:45:27;3.68;69.94
26721;HTU21D;15950;51.112;6.966;2023-03-16T04:48:28;3.63;70.19
26721;HTU21D;15950;51.112;6.966;2023-03-16T04:51:28;3.64;70.40
26721;HTU21D;15950;51.112;6.966;2023-03-16T04:54:27;3.72;70.21
26721;HTU21D;15950;51.112;6.966;2023-03-16T04:57:27;3.67;70.61
26721;HTU21D;15950;51.112;6.966;2023-03-16T05:00:27;3.67;70.67
26721;HTU21D;15950;51.112;6.966;2023-03-16T05:03:27;3.77;70.58
26721;HTU21D;15950;51.112;6.966;2023-03-16T05:06:28;3.68;71.00
26721;HTU21D;15950;51.112;6.966;2023-03-16T05:09:28;3.76;70.73
26721;HTU21D;15950;51.112;6.966;2023-03-16T05:12:27;3.80;70.73
26721;HTU21D;15950;51.112;6.966;2023-03-16T05:15:27;3.73;70.88
26721;HTU21D;15950;51.112;6.966;2023-03-16T05:18:27;3.73;71.07
26721;HTU21D;15950;51.112;6.966;2023-03-16T05:21:27;3.78;71.04
26721;HTU21D;15950;51.112;6.966;2023-03-16T05:24:27;3.83;71.00
26721;HTU21D;15950;51.112;6.966;2023-03-16T05:27:27;3.82;70.81
26721;HTU21D;15950;51.112;6.966;2023-03-16T05:30:27;3.81;70.97
26721;HTU21D;15950;51.112;6.966;2023-03-16T05:33:27;3.89;70.90
26721;HTU21D;15950;51.112;6.966;2023-03-16T05:36:27;3.87;70.84
26721;HTU21D;15950;51.112;6.966;2023-03-16T05:39:27;3.90;70.93
26721;HTU21D;15950;51.112;6.966;2023-03-16T05:42:27;3.84;71.10
26721;HTU21D;15950;51.112;6.966;2023-03-16T05:45:27;3.92;71.01
26721;HTU21D;15950;51.112;6.966;2023-03-16T05:48:27;3.89;71.16
26721;HTU21D;15950;51.112;6.966;2023-03-16T05:51:27;3.84;71.19
26721;HTU21D;15950;51.112;6.966;2023-03-16T05:54:27;3.84;71.07
26721;HTU21D;15950;51.112;6.966;2023-03-16T05:57:27;3.86;71.18
26721;HTU21D;15950;51.112;6.966;2023-03-16T06:00:27;3.90;71.09
26721;HTU21D;15950;51.112;6.966;2023-03-16T06:03:27;3.97;70.90
26721;HTU21D;15950;51.112;6.966;2023-03-16T06:06:27;3.89;71.03
26721;HTU21D;15950;51.112;6.966;2023-03-16T06:09:27;3.96;70.84
26721;HTU21D;15950;51.112;6.966;2023-03-16T06:12:27;3.98;70.81
26721;HTU21D;15950;51.112;6.966;2023-03-16T06:15:27;4.00;70.78
26721;HTU21D;15950;51.112;6.966;2023-03-16T06:18:28;4.06;70.68
26721;HTU21D;15950;51.112;6.966;2023-03-16T06:21:27;4.05;70.58
26721;HTU21D;15950;51.112;6.966;2023-03-16T06:24:27;4.08;70.63
26721;HTU21D;15950;51.112;6.966;2023-03-16T06:27:27;4.10;70.50
26721;HTU21D;15950;51.112;6.966;2023-03-16T06:30:28;4.08;70.41
26721;HTU21D;15950;51.112;6.966;2023-03-16T06:33:27;4.22;69.94
26721;HTU21D;15950;51.112;6.966;2023-03-16T06:36:27;4.29;70.11
26721;HTU21D;15950;51.112;6.966;2023-03-16T06:39:27;4.29;70.08
26721;HTU21D;15950;51.112;6.966;2023-03-16T06:42:27;4.32;70.10
26721;HTU21D;15950;51.112;6.966;2023-03-16T06:45:27;4.37;69.76
26721;HTU21D;15950;51.112;6.966;2023-03-16T06:48:27;4.41;69.63
26721;HTU21D;15950;51.112;6.966;2023-03-16T06:51:27;4.47;69.59
26721;HTU21D;15950;51.112;6.966;2023-03-16T06:54:27;4.52;69.43
26721;HTU21D;15950;51.112;6.966;2023-03-16T06:57:27;4.57;69.56
26721;HTU21D;15950;51.112;6.966;2023-03-16T07:00:27;4.57;69.15
26721;HTU21D;15950;51.112;6.966;2023-03-16T07:03:27;4.60;69.17
26721;HTU21D;15950;51.112;6.966;2023-03-16T07:06:27;4.65;69.10
26721;HTU21D;15950;51.112;6.966;2023-03-16T07:09:28;4.64;69.18
26721;HTU21D;15950;51.112;6.966;2023-03-16T07:12:27;4.69;69.35
26721;HTU21D;15950;51.112;6.966;2023-03-16T07:15:27;4.68;69.16
26721;HTU21D;15950;51.112;6.966;2023-03-16T07:18:27;4.70;69.16
26721;HTU21D;15950;51.112;6.966;2023-03-16T07:21:27;4.77;69.04
26721;HTU21D;15950;51.112;6.966;2023-03-16T07:24:27;4.81;69.17
26721;HTU21D;15950;51.112;6.966;2023-03-16T07:27:27;4.85;68.92
26721;HTU21D;15950;51.112;6.966;2023-03-16T07:30:27;4.86;69.11
26721;HTU21D;15950;51.112;6.966;2023-03-16T07:33:27;4.83;68.91
26721;HTU21D;15950;51.112;6.966;2023-03-16T07:36:27;4.94;68.85
26721;HTU21D;15950;51.112;6.966;2023-03-16T07:39:27;4.98;68.90
26721;HTU21D;15950;51.112;6.966;2023-03-16T07:42:27;4.99;68.97
26721;HTU21D;15950;51.112;6.966;2023-03-16T07:45:27;5.06;68.89
26721;HTU21D;15950;51.112;6.966;2023-03-16T07:48:27;5.02;68.74
26721;HTU21D;15950;51.112;6.966;2023-03-16T07:51:27;5.11;68.64
26721;HTU21D;15950;51.112;6.966;2023-03-16T07:54:27;5.15;68.62
26721;HTU21D;15950;51.112;6.966;2023-03-16T07:57:27;5.32;68.71
26721;HTU21D;15950;51.112;6.966;2023-03-16T08:00:27;5.22;68.45
26721;HTU21D;15950;51.112;6.966;2023-03-16T08:03:28;5.30;68.49
26721;HTU21D;15950;51.112;6.966;2023-03-16T08:06:27;5.36;68.58
26721;HTU21D;15950;51.112;6.966;2023-03-16T08:09:27;5.41;68.39
26721;HTU21D;15950;51.112;6.966;2023-03-16T08:12:27;5.43;68.35
26721;HTU21D;15950;51.112;6.966;2023-03-16T08:15:27;5.47;68.45
26721;HTU21D;15950;51.112;6.966;2023-03-16T08:18:28;5.53;68.40
26721;HTU21D;15950;51.112;6.966;2023-03-16T08:21:27;5.56;68.28
26721;HTU21D;15950;51.112;6.966;2023-03-16T08:24:28;5.63;68.09
26721;HTU21D;15950;51.112;6.966;2023-03-16T08:27:27;5.70;67.97
26721;HTU21D;15950;51.112;6.966;2023-03-16T08:30:27;5.75;67.82
26721;HTU21D;15950;51.112;6.966;2023-03-16T08:33:27;5.88;67.72
26721;HTU21D;15950;51.112;6.966;2023-03-16T08:36:27;5.85;67.59
26721;HTU21D;15950;51.112;6.966;2023-03-16T08:39:27;5.91;67.49
26721;HTU21D;15950;51.112;6.966;2023-03-16T08:42:27;5.94;67.36
26721;HTU21D;15950;51.112;6.966;2023-03-16T08:45:27;5.92;67.31
26721;HTU21D;15950;51.112;6.966;2023-03-16T08:48:27;6.01;67.25
26721;HTU21D;15950;51.112;6.966;2023-03-16T08:51:27;6.05;67.20
26721;HTU21D;15950;51.112;6.966;2023-03-16T08:54:27;6.07;66.88
26721;HTU21D;15950;51.112;6.966;2023-03-16T08:57:27;6.11;66.76
26721;HTU21D;15950;51.112;6.966;2023-03-16T09:00:27;6.20;66.76
26721;HTU21D;15950;51.112;6.966;2023-03-16T09:03:27;6.20;66.78
26721;HTU21D;15950;51.112;6.966;2023-03-16T09:06:27;6.27;66.52
26721;HTU21D;15950;51.112;6.966;2023-03-16T09:09:27;6.36;66.46
26721;HTU21D;15950;51.112;6.966;2023-03-16T09:12:27;6.33;66.18
26721;HTU21D;15950;51.112;6.966;2023-03-16T09:15:27;6.33;66.19
26721;HTU21D;15950;51.112;6.966;2023-03-16T09:18:27;6.32;66.43
26721;HTU21D;15950;51.112;6.966;2023-03-16T09:21:27;6.45;66.17
26721;HTU21D;15950;51.112;6.966;2023-03-16T09:24:27;6.52;66.14
26721;HTU21D;15950;51.112;6.966;2023-03-16T09:27:27;6.71;66.22
26721;HTU21D;15950;51.112;6.966;2023-03-16T09:30:27;6.80;66.14
26721;HTU21D;15950;51.112;6.966;2023-03-16T09:33:27;6.83;65.65
26721;HTU21D;15950;51.112;6.966;2023-03-16T09:36:27;6.92;65.27
26721;HTU21D;15950;51.112;6.966;2023-03-16T09:39:27;7.04;65.15
26721;HTU21D;15950;51.112;6.966;2023-03-16T09:42:40;7.07;64.91
26721;HTU21D;15950;51.112;6.966;2023-03-16T09:45:36;7.22;64.98
26721;HTU21D;15950;51.112;6.966;2023-03-16T09:48:29;7.28;64.86
26721;HTU21D;15950;51.112;6.966;2023-03-16T09:57:32;7.52;64.05
26721;HTU21D;15950;51.112;6.966;2023-03-16T10:00:33;7.57;63.60
26721;HTU21D;15950;51.112;6.966;2023-03-16T10:06:27;7.75;63.60
26721;HTU21D;15950;51.112;6.966;2023-03-16T10:12:33;7.74;63.28
26721;HTU21D;15950;51.112;6.966;2023-03-16T10:15:31;7.76;63.14
26721;HTU21D;15950;51.112;6.966;2023-03-16T10:18:34;7.81;63.27
26721;HTU21D;15950;51.112;6.966;2023-03-16T10:21:30;7.89;63.24
26721;HTU21D;15950;51.112;6.966;2023-03-16T10:27:32;8.04;63.21
26721;HTU21D;15950;51.112;6.966;2023-03-16T10:30:30;8.07;62.50
26721;HTU21D;15950;51.112;6.966;2023-03-16T10:33:29;8.24;62.37
26721;HTU21D;15950;51.112;6.966;2023-03-16T10:36:28;8.25;61.80
26721;HTU21D;15950;51.112;6.966;2023-03-16T10:39:35;8.25;61.77
26721;HTU21D;15950;51.112;6.966;2023-03-16T10:42:27;8.27;61.95
26721;HTU21D;15950;51.112;6.966;2023-03-16T10:45:33;8.39;61.76
26721;HTU21D;15950;51.112;6.966;2023-03-16T10:48:29;8.44;61.53
26721;HTU21D;15950;51.112;6.966;2023-03-16T10:51:30;8.66;61.35
26721;HTU21D;15950;51.112;6.966;2023-03-16T10:54:29;8.87;61.15
26721;HTU21D;15950;51.112;6.966;2023-03-16T10:57:33;9.05;60.54
26721;HTU21D;15950;51.112;6.966;2023-03-16T11:00:28;9.16;59.92
26721;HTU21D;15950;51.112;6.966;2023-03-16T11:03:29;9.10;59.19
26721;HTU21D;15950;51.112;6.966;2023-03-16T11:06:29;9.30;59.05
26721;HTU21D;15950;51.112;6.966;2023-03-16T11:09:32;9.35;58.46
26721;HTU21D;15950;51.112;6.966;2023-03-16T11:12:30;9.25;57.45
26721;HTU21D;15950;51.112;6.966;2023-03-16T11:15:34;9.35;57.66
26721;HTU21D;15950;51.112;6.966;2023-03-16T11:18:30;9.44;57.73
26721;HTU21D;15950;51.112;6.966;2023-03-16T11:33:27;9.56;57.26
26721;HTU21D;15950;51.112;6.966;2023-03-16T12:12:35;10.58;54.01
26721;HTU21D;15950;51.112;6.966;2023-03-16T12:21:33;10.80;53.23
26721;HTU21D;15950;51.112;6.966;2023-03-16T12:24:31;10.68;52.70
26721;HTU21D;15950;51.112;6.966;2023-03-16T12:27:33;10.80;52.92
26721;HTU21D;15950;51.112;6.966;2023-03-16T12:30:38;10.71;53.49
26721;HTU21D;15950;51.112;6.966;2023-03-16T12:36:37;10.67;54.08
26721;HTU21D;15950;51.112;6.966;2023-03-16T12:42:37;10.59;53.97
26721;HTU21D;15950;51.112;6.966;2023-03-16T12:48:36;10.60;53.20
26721;HTU21D;15950;51.112;6.966;2023-03-16T12:51:33;10.59;53.07
26721;HTU21D;15950;51.112;6.966;2023-03-16T12:54:27;10.68;53.07
26721;HTU21D;15950;51.112;6.966;2023-03-16T12:57:27;10.74;53.07
26721;HTU21D;15950;51.112;6.966;2023-03-16T13:01:15;10.79;53.31
26721;HTU21D;15950;51.112;6.966;2023-03-16T13:03:27;10.79;53.02
26721;HTU21D;15950;51.112;6.966;2023-03-16T13:06:32;10.89;53.09
26721;HTU21D;15950;51.112;6.966;2023-03-16T13:09:27;10.74;52.07
26721;HTU21D;15950;51.112;6.966;2023-03-16T13:12:32;10.88;52.15
26721;HTU21D;15950;51.112;6.966;2023-03-16T13:15:29;10.99;52.35
26721;HTU21D;15950;51.112;6.966;2023-03-16T13:18:33;11.03;52.20
26721;HTU21D;15950;51.112;6.966;2023-03-16T13:21:33;11.08;51.64
26721;HTU21D;15950;51.112;6.966;2023-03-16T13:24:35;11.10;50.82
26721;HTU21D;15950;51.112;6.966;2023-03-16T13:27:31;11.25;51.22
26721;HTU21D;15950;51.112;6.966;2023-03-16T13:30:32;11.33;51.01
26721;HTU21D;15950;51.112;6.966;2023-03-16T13:33:30;11.35;50.54
26721;HTU21D;15950;51.112;6.966;2023-03-16T13:36:28;11.61;50.92
26721;HTU21D;15950;51.112;6.966;2023-03-16T13:39:29;11.69;50.46
26721;HTU21D;15950;51.112;6.966;2023-03-16T13:42:31;11.72;50.20
26721;HTU21D;15950;51.112;6.966;2023-03-16T13:45:31;11.84;49.73
26721;HTU21D;15950;51.112;6.966;2023-03-16T13:48:27;11.89;49.47
26721;HTU21D;15950;51.112;6.966;2023-03-16T13:51:28;11.93;49.56
26721;HTU21D;15950;51.112;6.966;2023-03-16T13:54:29;12.00;49.17
26721;HTU21D;15950;51.112;6.966;2023-03-16T13:57:29;11.96;49.11
26721;HTU21D;15950;51.112;6.966;2023-03-16T14:00:33;11.98;49.46
26721;HTU21D;15950;51.112;6.966;2023-03-16T14:03:36;12.08;49.34
26721;HTU21D;15950;51.112;6.966;2023-03-16T14:06:29;12.00;48.92
26721;HTU21D;15950;51.112;6.966;2023-03-16T14:09:31;12.08;49.49
26721;HTU21D;15950;51.112;6.966;2023-03-16T14:12:27;12.10;49.19
26721;HTU21D;15950;51.112;6.966;2023-03-16T14:15:29;12.04;48.65
26721;HTU21D;15950;51.112;6.966;2023-03-16T14:18:38;12.08;48.43
26721;HTU21D;15950;51.112;6.966;2023-03-16T14:21:29;12.10;48.47
26721;HTU21D;15950;51.112;6.966;2023-03-16T14:24:31;11.99;48.31
26721;HTU21D;15950;51.112;6.966;2023-03-16T14:30:28;12.09;49.09
26721;HTU21D;15950;51.112;6.966;2023-03-16T14:33:30;11.98;49.18
26721;HTU21D;15950;51.112;6.966;2023-03-16T14:36:36;11.99;49.52
26721;HTU21D;15950;51.112;6.966;2023-03-16T14:39:27;12.10;49.31
26721;HTU21D;15950;51.112;6.966;2023-03-16T14:42:29;12.06;49.89
26721;HTU21D;15950;51.112;6.966;2023-03-16T14:45:31;12.10;49.92
26721;HTU21D;15950;51.112;6.966;2023-03-16T14:48:27;12.02;49.19
26721;HTU21D;15950;51.112;6.966;2023-03-16T14:51:28;11.95;48.91
26721;HTU21D;15950;51.112;6.966;2023-03-16T14:54:27;12.06;48.73
26721;HTU21D;15950;51.112;6.966;2023-03-16T14:57:27;12.04;49.03
26721;HTU21D;15950;51.112;6.966;2023-03-16T15:00:27;12.15;49.21
26721;HTU21D;15950;51.112;6.966;2023-03-16T15:03:32;12.27;48.97
26721;HTU21D;15950;51.112;6.966;2023-03-16T15:06:27;12.03;48.73
26721;HTU21D;15950;51.112;6.966;2023-03-16T15:09:35;12.00;49.00
26721;HTU21D;15950;51.112;6.966;2023-03-16T15:12:27;12.04;49.39
26721;HTU21D;15950;51.112;6.966;2023-03-16T15:15:27;12.02;49.63
26721;HTU21D;15950;51.112;6.966;2023-03-16T15:18:27;11.99;49.33
26721;HTU21D;15950;51.112;6.966;2023-03-16T15:21:27;12.01;48.44
26721;HTU21D;15950;51.112;6.966;2023-03-16T15:24:27;12.01;48.95
26721;HTU21D;15950;51.112;6.966;2023-03-16T15:27:33;11.95;48.57
26721;HTU21D;15950;51.112;6.966;2023-03-16T15:30:27;12.00;48.52
26721;HTU21D;15950;51.112;6.966;2023-03-16T15:33:27;11.93;48.50
26721;HTU21D;15950;51.112;6.966;2023-03-16T15:36:27;11.92;48.57
26721;HTU21D;15950;51.112;6.966;2023-03-16T15:39:27;11.98;48.99
26721;HTU21D;15950;51.112;6.966;2023-03-16T15:42:27;11.99;49.35
26721;HTU21D;15950;51.112;6.966;2023-03-16T15:45:27;11.99;49.24
26721;HTU21D;15950;51.112;6.966;2023-03-16T15:48:27;11.91;49.40
26721;HTU21D;15950;51.112;6.966;2023-03-16T15:51:28;11.78;49.82
26721;HTU21D;15950;51.112;6.966;2023-03-16T15:54:27;11.70;49.69
26721;HTU21D;15950;51.112;6.966;2023-03-16T15:57:27;11.68;49.92
26721;HTU21D;15950;51.112;6.966;2023-03-16T16:00:35;11.63;50.05
26721;HTU21D;15950;51.112;6.966;2023-03-16T16:03:27;11.57;50.00
26721;HTU21D;15950;51.112;6.966;2023-03-16T16:06:27;11.54;50.15
26721;HTU21D;15950;51.112;6.966;2023-03-16T16:09:27;11.53;50.41
26721;HTU21D;15950;51.112;6.966;2023-03-16T16:12:29;11.48;50.36
26721;HTU21D;15950;51.112;6.966;2023-03-16T16:15:27;11.49;50.74
26721;HTU21D;15950;51.112;6.966;2023-03-16T16:18:31;11.46;50.85
26721;HTU21D;15950;51.112;6.966;2023-03-16T16:21:27;11.39;51.04
26721;HTU21D;15950;51.112;6.966;2023-03-16T16:24:27;11.32;51.30
26721;HTU21D;15950;51.112;6.966;2023-03-16T16:27:27;11.29;51.49
26721;HTU21D;15950;51.112;6.966;2023-03-16T16:30:29;11.26;51.60
26721;HTU21D;15950;51.112;6.966;2023-03-16T16:36:27;11.21;51.96
26721;HTU21D;15950;51.112;6.966;2023-03-16T16:39:27;11.12;52.04
26721;HTU21D;15950;51.112;6.966;2023-03-16T16:42:27;11.09;52.51
26721;HTU21D;15950;51.112;6.966;2023-03-16T16:45:27;11.10;52.83
26721;HTU21D;15950;51.112;6.966;2023-03-16T16:48:33;11.13;52.91
26721;HTU21D;15950;51.112;6.966;2023-03-16T16:51:28;11.08;53.30
26721;HTU21D;15950;51.112;6.966;2023-03-16T16:54:28;11.17;53.27
26721;HTU21D;15950;51.112;6.966;2023-03-16T16:57:27;11.14;53.39
26721;HTU21D;15950;51.112;6.966;2023-03-16T17:00:27;11.21;53.29
26721;HTU21D;15950;51.112;6.966;2023-03-16T17:03:28;11.09;53.49
26721;HTU21D;15950;51.112;6.966;2023-03-16T17:06:29;11.03;53.78
26721;HTU21D;15950;51.112;6.966;2023-03-16T17:09:30;11.02;53.99
26721;HTU21D;15950;51.112;6.966;2023-03-16T17:12:27;10.99;54.24
26721;HTU21D;15950;51.112;6.966;2023-03-16T17:15:28;10.92;54.46
26721;HTU21D;15950;51.112;6.966;2023-03-16T17:18:29;10.89;54.55
26721;HTU21D;15950;51.112;6.966;2023-03-16T17:21:29;10.84;54.78
26721;HTU21D;15950;51.112;6.966;2023-03-16T17:24:27;10.81;54.89
26721;HTU21D;15950;51.112;6.966;2023-03-16T17:27:28;10.80;54.84
26721;HTU21D;15950;51.112;6.966;2023-03-16T17:30:28;10.75;55.00
26721;HTU21D;15950;51.112;6.966;2023-03-16T17:33:30;10.73;55.25
26721;HTU21D;15950;51.112;6.966;2023-03-16T17:36:28;10.71;55.55
26721;HTU21D;15950;51.112;6.966;2023-03-16T17:39:31;10.72;55.37
26721;HTU21D;15950;51.112;6.966;2023-03-16T17:42:27;10.71;55.29
26721;HTU21D;15950;51.112;6.966;2023-03-16T17:45:27;10.63;55.52
26721;HTU21D;15950;51.112;6.966;2023-03-16T17:48:27;10.53;55.68
26721;HTU21D;15950;51.112;6.966;2023-03-16T17:51:32;10.54;55.79
26721;HTU21D;15950;51.112;6.966;2023-03-16T17:54:27;10.51;55.90
26721;HTU21D;15950;51.112;6.966;2023-03-16T17:57:31;10.55;55.61
26721;HTU21D;15950;51.112;6.966;2023-03-16T18:00:32;10.47;55.66
26721;HTU21D;15950;51.112;6.966;2023-03-16T18:03:27;10.43;55.73
26721;HTU21D;15950;51.112;6.966;2023-03-16T18:06:28;10.36;55.84
26721;HTU21D;15950;51.112;6.966;2023-03-16T18:09:27;10.37;55.95
26721;HTU21D;15950;51.112;6.966;2023-03-16T18:12:27;10.31;56.02
26721;HTU21D;15950;51.112;6.966;2023-03-16T18:15:33;10.26;55.94
26721;HTU21D;15950;51.112;6.966;2023-03-16T18:18:29;10.25;56.27
26721;HTU21D;15950;51.112;6.966;2023-03-16T18:21:27;10.16;56.53
26721;HTU21D;15950;51.112;6.966;2023-03-16T18:24:26;10.13;56.52
26721;HTU21D;15950;51.112;6.966;2023-03-16T18:27:27;10.17;56.48
26721;HTU21D;15950;51.112;6.966;2023-03-16T18:30:27;10.09;56.54
26721;HTU21D;15950;51.112;6.966;2023-03-16T18:36:33;10.03;56.77
26721;HTU21D;15950;51.112;6.966;2023-03-16T18:39:26;9.99;56.74
26721;HTU21D;15950;51.112;6.966;2023-03-16T18:42:26;9.90;57.02
26721;HTU21D;15950;51.112;6.966;2023-03-16T18:45:27;9.95;56.84
26721;HTU21D;15950;51.112;6.966;2023-03-16T18:48:31;9.97;56.81
26721;HTU21D;15950;51.112;6.966;2023-03-16T18:51:30;9.96;56.53
26721;HTU21D;15950;51.112;6.966;2023-03-16T18:54:29;9.94;56.46
26721;HTU21D;15950;51.112;6.966;2023-03-16T18:57:27;9.89;56.68
26721;HTU21D;15950;51.112;6.966;2023-03-16T19:00:26;9.86;56.81
26721;HTU21D;15950;51.112;6.966;2023-03-16T19:03:33;9.88;56.67
26721;HTU21D;15950;51.112;6.966;2023-03-16T19:06:30;9.84;56.79
26721;HTU21D;15950;51.112;6.966;2023-03-16T19:09:30;9.81;56.79
26721;HTU21D;15950;51.112;6.966;2023-03-16T19:12:26;9.83;56.74
26721;HTU21D;15950;51.112;6.966;2023-03-16T19:15:31;9.81;56.64
26721;HTU21D;15950;51.112;6.966;2023-03-16T19:18:29;9.69;56.94
26721;HTU21D;15950;51.112;6.966;2023-03-16T19:21:26;9.67;57.03
26721;HTU21D;15950;51.112;6.966;2023-03-16T19:24:30;9.64;57.21
26721;HTU21D;15950;51.112;6.966;2023-03-16T19:27:32;9.67;57.20
26721;HTU21D;15950;51.112;6.966;2023-03-16T19:30:28;9.56;57.35
26721;HTU21D;15950;51.112;6.966;2023-03-16T19:33:30;9.59;57.50
26721;HTU21D;15950;51.112;6.966;2023-03-16T19:36:30;9.59;57.47
26721;HTU21D;15950;51.112;6.966;2023-03-16T19:39:32;9.59;57.43
26721;HTU21D;15950;51.112;6.966;2023-03-16T19:42:30;9.55;57.48
26721;HTU21D;15950;51.112;6.966;2023-03-16T19:45:31;9.57;57.26
26721;HTU21D;15950;51.112;6.966;2023-03-16T19:48:32;9.53;57.69
26721;HTU21D;15950;51.112;6.966;2023-03-16T19:51:26;9.42;58.03
26721;HTU21D;15950;51.112;6.966;2023-03-16T19:54:29;9.42;58.08
26721;HTU21D;15950;51.112;6.966;2023-03-16T19:57:27;9.39;58.15
26721;HTU21D;15950;51.112;6.966;2023-03-16T20:00:27;9.44;58.27
26721;HTU21D;15950;51.112;6.966;2023-03-16T20:03:28;9.38;58.40
26721;HTU21D;15950;51.112;6.966;2023-03-16T20:06:26;9.39;58.36
26721;HTU21D;15950;51.112;6.966;2023-03-16T20:09:26;9.39;58.41
26721;HTU21D;15950;51.112;6.966;2023-03-16T20:12:27;9.39;58.41
26721;HTU21D;15950;51.112;6.966;2023-03-16T20:15:29;9.37;58.45
26721;HTU21D;15950;51.112;6.966;2023-03-16T20:18:26;9.39;58.63
26721;HTU21D;15950;51.112;6.966;2023-03-16T20:21:27;9.29;58.74